Time;durP1;ratioP1;P1;durP2;ratioP2;P2;SDS_P1;SDS_P2;PMS_P1;PMS_P2;Temp;Humidity;BMP_temperature;BMP_pressure;BME280_temperature;BME280_humidity;BME280_pressure;Samples;Min_cycle;Max_cycle;Signal;HPM_P1;HPM_P2
2023/10/12 00:08:34;;;;;;;9.50;5.17;;;18.70;10.30;;;;;;6221322;22;20483;-91
2023/10/12 00:11:06;;;;;;;8.33;5.43;;;;;;;;;;6224076;23;20409;-92
2023/10/12 00:13:52;;;;;;;9.80;5.13;;;18.80;99.90;;;;;;6222365;23;20410;-91
2023/10/12 00:16:20;;;;;;;8.10;5.07;;;;;;;;;;6222337;23;20414;-92
2023/10/12 00:21:54;;;;;;;4.67;4.20;;;19.10;1.00;;;;;;6227066;23;20441;-92
2023/10/12 00:24:43;;;;;;;8.43;4.70;;;19.20;1.00;;;;;;6244098;23;20393;-93
2023/10/12 00:27:16;;;;;;;15.30;4.00;;;;;;;;;;6242986;23;20382;-91
2023/10/12 00:29:52;;;;;;;6.73;3.93;;;19.50;1.00;;;;;;6241144;23;20400;-91
2023/10/12 00:32:31;;;;;;;10.70;4.10;;;;;;;;;;6233857;23;20420;-92
2023/10/12 00:35:28;;;;;;;12.03;3.97;;;19.50;1.00;;;;;;6225519;23;20445;-92
2023/10/12 00:41:24;;;;;;;9.23;4.40;;;19.60;1.00;;;;;;6233274;23;20450;-93
2023/10/12 00:44:11;;;;;;;10.57;3.73;;;19.70;1.00;;;;;;6245619;23;20393;-94
2023/10/12 00:58:38;;;;;;;5.87;4.57;;;19.30;1.00;;;;;;6212679;23;20495;-93
2023/10/12 01:01:21;;;;;;;;;;;;;;;;;;;;;
2023/10/12 01:06:51;;;;;;;11.53;4.10;;;19.20;1.00;;;;;;6215405;23;20399;-94
2023/10/12 01:12:34;;;;;;;7.63;3.83;;;19.40;1.00;;;;;;6096112;23;20394;-93
2023/10/12 01:18:01;;;;;;;9.17;3.90;;;;;;;;;;6174676;23;20408;-93
2023/10/12 01:20:39;;;;;;;6.53;4.57;;;;;;;;;;6185047;23;20388;-91
2023/10/12 01:23:29;;;;;;;8.10;3.80;;;17.70;1.00;;;;;;6183695;23;20399;-91
2023/10/12 01:26:13;;;;;;;6.00;4.07;;;19.50;1.00;;;;;;6167299;23;20439;-91
2023/10/12 01:28:51;;;;;;;15.17;5.27;;;19.40;1.00;;;;;;6166051;23;20891;-91
2023/10/12 01:32:22;;;;;;;6.20;4.67;;;19.50;1.00;;;;;;6165834;23;20481;-91
2023/10/12 01:35:10;;;;;;;11.40;4.47;;;19.50;1.00;;;;;;6165269;23;20526;-92
2023/10/12 01:38:00;;;;;;;7.37;4.60;;;19.50;1.00;;;;;;6171088;23;20412;-91
2023/10/12 01:40:55;;;;;;;6.87;4.40;;;19.60;1.00;;;;;;6184544;23;20459;-91
2023/10/12 01:43:40;;;;;;;6.20;4.10;;;19.60;1.00;;;;;;6184893;23;20404;-91
2023/10/12 01:46:41;;;;;;;8.10;4.73;;;19.50;1.00;;;;;;6194301;22;20451;-91
2023/10/12 01:52:08;;;;;;;8.87;3.90;;;19.40;1.00;;;;;;6186913;23;20418;-91
2023/10/12 01:55:15;;;;;;;8.30;3.43;;;19.30;1.00;;;;;;6193739;23;20439;-91
2023/10/12 01:58:20;;;;;;;8.20;4.30;;;19.20;1.00;;;;;;6197056;23;20417;-91
2023/10/12 02:01:13;;;;;;;7.23;4.13;;;19.20;1.00;;;;;;6213671;23;20395;-92
2023/10/12 02:09:31;;;;;;;11.10;3.93;;;19.00;1.00;;;;;;6137078;23;20412;-93
2023/10/12 02:12:34;;;;;;;8.13;4.20;;;18.90;1.00;;;;;;6174931;23;20417;-93
2023/10/12 02:27:25;;;;;;;18.90;6.10;;;18.80;1.00;;;;;;6150231;23;20384;-95
2023/10/12 02:42:16;;;;;;;6.73;3.50;;;;;;;;;;6130592;23;20408;-91
2023/10/12 02:45:27;;;;;;;5.30;4.20;;;18.70;1.00;;;;;;6131929;23;20520;-91
2023/10/12 02:51:18;;;;;;;6.40;4.20;;;18.60;79.70;;;;;;6138035;23;20409;-91
2023/10/12 02:54:02;;;;;;;8.43;4.17;;;;;;;;;;6146671;23;20407;-92
2023/10/12 02:57:22;;;;;;;;;;;;;;;;;;;;;
2023/10/12 03:00:18;;;;;;;5.63;4.30;;;18.50;1.00;;;;;;6138935;23;20424;-90
2023/10/12 03:03:07;;;;;;;5.70;4.87;;;;;;;;;;6135428;23;20410;-91
2023/10/12 03:06:07;;;;;;;12.30;6.23;;;18.30;1.00;;;;;;6154484;23;20429;-94
2023/10/12 03:09:14;;;;;;;8.57;4.83;;;18.50;1.00;;;;;;6153834;23;20479;-92
2023/10/12 03:11:56;;;;;;;7.30;4.40;;;;;;;;;;6142293;23;20458;-91
2023/10/12 03:20:35;;;;;;;9.23;4.77;;;;;;;;;;6131237;23;20408;-91
2023/10/12 03:29:18;;;;;;;7.40;4.83;;;17.80;1.00;;;;;;6138894;23;20442;-93
2023/10/12 03:32:16;;;;;;;10.87;5.00;;;17.70;99.90;;;;;;6133492;23;20427;-93
2023/10/12 03:44:20;;;;;;;12.87;5.93;;;17.30;1.00;;;;;;6037848;23;20450;-95
2023/10/12 03:50:59;;;;;;;14.67;5.23;;;16.90;1.00;;;;;;6001340;23;20428;-93
2023/10/12 04:02:56;;;;;;;10.67;6.83;;;16.70;1.00;;;;;;6156075;23;20413;-92
2023/10/12 04:06:07;;;;;;;13.00;6.77;;;16.60;1.00;;;;;;6155949;23;20432;-92
2023/10/12 04:08:51;;;;;;;16.83;8.30;;;16.40;59.60;;;;;;6152893;23;20401;-92
2023/10/12 04:23:34;;;;;;;14.27;6.93;;;15.80;99.90;;;;;;6184851;23;20408;-92
2023/10/12 04:26:27;;;;;;;10.20;6.93;;;15.90;99.90;;;;;;6159591;23;20465;-92
2023/10/12 04:29:13;;;;;;;12.53;6.10;;;15.90;99.90;;;;;;6147801;23;20420;-90
2023/10/12 04:31:56;;;;;;;13.83;8.00;;;15.80;99.90;;;;;;6141903;23;20401;-92
2023/10/12 04:34:30;;;;;;;15.00;7.20;;;;;;;;;;6143770;23;20448;-91
2023/10/12 04:37:09;;;;;;;13.93;7.90;;;;;;;;;;6147098;23;21005;-88
2023/10/12 04:39:37;;;;;;;15.80;7.60;;;15.70;99.90;;;;;;6164720;23;20400;-89
2023/10/12 04:42:11;;;;;;;12.20;7.13;;;;;;;;;;6164662;23;20407;-89
2023/10/12 04:44:43;;;;;;;13.47;8.00;;;15.80;99.90;;;;;;6185333;23;20402;-88
2023/10/12 04:47:13;;;;;;;16.10;8.77;;;15.70;99.90;;;;;;6185803;23;20424;-87
2023/10/12 04:49:57;;;;;;;13.80;7.70;;;15.60;99.90;;;;;;6185809;23;20537;-87
2023/10/12 04:52:36;;;;;;;11.50;7.03;;;15.50;99.90;;;;;;6185028;23;20381;-88
2023/10/12 04:55:20;;;;;;;18.40;8.87;;;15.50;99.90;;;;;;6185357;23;20499;-88
2023/10/12 04:57:49;;;;;;;16.87;7.60;;;14.40;99.90;;;;;;6177830;23;20482;-89
2023/10/12 05:00:24;;;;;;;11.70;7.90;;;15.50;99.90;;;;;;6173693;23;20495;-90
2023/10/12 05:02:58;;;;;;;14.97;7.47;;;;;;;;;;6171678;23;20392;-90
2023/10/12 05:05:54;;;;;;;10.20;6.90;;;;;;;;;;6178753;23;20391;-89
2023/10/12 05:08:21;;;;;;;11.80;8.10;;;15.30;99.90;;;;;;6182832;23;20455;-90
2023/10/12 05:10:49;;;;;;;11.80;7.97;;;15.30;99.90;;;;;;6183855;23;20415;-89
2023/10/12 05:13:26;;;;;;;14.50;7.87;;;15.20;99.90;;;;;;6171228;23;20416;-89
2023/10/12 05:15:55;;;;;;;10.23;7.10;;;15.20;99.90;;;;;;6167378;23;21012;-88
2023/10/12 05:18:23;;;;;;;14.00;7.53;;;15.60;99.90;;;;;;6165770;23;20424;-88
2023/10/12 05:20:55;;;;;;;14.70;8.07;;;15.30;99.90;;;;;;6163656;23;20470;-89
2023/10/12 05:23:22;;;;;;;14.17;8.40;;;;;;;;;;6164359;23;20431;-88
2023/10/12 05:26:07;;;;;;;17.43;8.70;;;15.20;99.90;;;;;;6163961;23;20935;-88
2023/10/12 05:31:39;;;;;;;10.33;7.23;;;;;;;;;;6133183;23;20410;-89
2023/10/12 05:34:32;;;;;;;12.67;7.30;;;15.30;99.90;;;;;;6168575;23;20408;-90
2023/10/12 05:37:07;;;;;;;11.90;7.70;;;15.10;99.90;;;;;;6166398;23;20447;-91
2023/10/12 05:39:41;;;;;;;11.00;7.43;;;15.20;99.90;;;;;;6165955;23;20400;-89
2023/10/12 05:42:11;;;;;;;8.20;7.10;;;15.30;99.90;;;;;;6163620;23;20467;-89
2023/10/12 05:44:42;;;;;;;11.23;7.80;;;;;;;;;;6173792;23;20392;-89
2023/10/12 05:47:11;;;;;;;12.07;7.40;;;15.20;99.90;;;;;;6166626;23;20439;-89
2023/10/12 05:49:40;;;;;;;13.10;8.17;;;15.50;99.90;;;;;;6167299;23;20483;-89
2023/10/12 05:52:08;;;;;;;15.30;8.00;;;14.30;99.90;;;;;;6166082;23;20495;-89
2023/10/12 05:54:38;;;;;;;35.17;31.37;;;15.20;99.90;;;;;;6178107;23;20423;-88
2023/10/12 05:57:17;;;;;;;14.60;8.80;;;;;;;;;;6168967;23;20444;-89
2023/10/12 05:59:46;;;;;;;16.70;9.77;;;15.20;99.90;;;;;;6166096;23;20411;-89
2023/10/12 06:02:18;;;;;;;13.47;9.73;;;15.20;99.90;;;;;;6166755;23;20396;-90
2023/10/12 06:04:47;;;;;;;15.80;10.37;;;;;;;;;;6168481;23;20396;-89
2023/10/12 06:07:14;;;;;;;16.20;9.80;;;;;;;;;;6180668;23;20424;-89
2023/10/12 06:09:43;;;;;;;20.63;10.27;;;;;;;;;;6174875;23;20495;-89
2023/10/12 06:12:21;;;;;;;19.47;10.27;;;15.30;99.90;;;;;;6173584;23;20391;-90
2023/10/12 06:14:53;;;;;;;18.60;11.50;;;15.30;99.90;;;;;;6170489;23;20411;-87
2023/10/12 06:17:28;;;;;;;14.20;10.33;;;15.40;99.90;;;;;;6170264;23;20424;-87
2023/10/12 06:19:56;;;;;;;22.73;10.60;;;15.30;99.90;;;;;;6169567;23;20414;-85
2023/10/12 06:22:32;;;;;;;33.10;21.60;;;15.30;99.90;;;;;;6169719;23;20412;-86
2023/10/12 06:24:59;;;;;;;27.57;19.00;;;15.30;99.90;;;;;;6174284;23;20387;-87
2023/10/12 06:27:30;;;;;;;29.27;17.90;;;15.20;99.90;;;;;;6178981;23;20424;-84
2023/10/12 06:30:16;;;;;;;21.17;16.77;;;15.20;99.90;;;;;;6171747;23;20460;-89
2023/10/12 06:32:52;;;;;;;18.47;15.30;;;15.20;99.90;;;;;;6173580;23;20443;-88
2023/10/12 12:21:47;;;;;;;14.73;2.83;;;;;;;;;;6169258;23;20391;-90
2023/10/12 12:24:44;;;;;;;7.47;1.90;;;15.30;99.90;;;;;;6181225;23;20826;-91
2023/10/12 12:30:07;;;;;;;6.40;1.97;;;;;;;;;;6165448;23;20392;-92
2023/10/12 15:37:13;;;;;;;5.77;2.67;;;15.20;99.90;;;;;;6159096;23;20428;-92
2023/10/12 15:39:49;;;;;;;5.80;2.63;;;15.20;99.90;;;;;;6147646;23;20420;-92
2023/10/12 15:42:22;;;;;;;9.27;3.23;;;15.30;99.90;;;;;;6144891;23;20449;-92
2023/10/12 15:45:05;;;;;;;8.57;3.30;;;15.20;99.90;;;;;;6145155;23;20442;-91
2023/10/12 15:47:45;;;;;;;8.20;3.50;;;;;;;;;;6138756;23;20425;-92
2023/10/12 16:55:35;;;;;;;11.37;4.47;;;14.80;99.90;;;;;;6190887;23;20438;-93
2023/10/12 16:58:22;;;;;;;;;;;;;;;;;;;;;
2023/10/12 17:01:09;;;;;;;19.70;7.53;;;14.70;1.00;;;;;;6192208;23;20431;-91
2023/10/12 17:04:28;;;;;;;9.97;5.97;;;14.70;30.90;;;;;;6186966;23;20411;-90
2023/10/12 17:07:04;;;;;;;16.47;4.37;;;14.70;99.90;;;;;;6185073;23;20499;-91
2023/10/12 17:12:32;;;;;;;15.77;7.40;;;14.70;99.90;;;;;;6177043;23;20392;-91
2023/10/12 17:15:04;;;;;;;22.27;10.40;;;;;;;;;;6185070;23;20391;-90
2023/10/12 17:17:38;;;;;;;19.20;11.40;;;14.70;99.90;;;;;;6184948;23;20408;-90
2023/10/12 17:20:16;;;;;;;15.87;7.83;;;14.40;99.90;;;;;;6185059;23;20415;-90
2023/10/12 17:23:05;;;;;;;18.13;6.30;;;14.70;99.90;;;;;;6184681;23;20388;-91
2023/10/12 17:25:54;;;;;;;18.13;6.00;;;14.60;1.00;;;;;;6182815;23;20409;-92
2023/10/12 17:28:48;;;;;;;10.30;4.87;;;14.00;1.00;;;;;;6172985;23;20423;-91
2023/10/12 17:37:11;;;;;;;9.47;4.87;;;;;;;;;;6169063;23;20396;-91
2023/10/12 17:39:45;;;;;;;8.10;4.70;;;14.60;1.00;;;;;;6174763;23;20885;-92
2023/10/12 17:42:49;;;;;;;8.37;4.70;;;14.50;1.00;;;;;;6170450;23;20431;-91
2023/10/12 17:46:12;;;;;;;;;;;;;;;;;;;;;
2023/10/12 17:48:53;;;;;;;15.57;5.27;;;14.40;1.00;;;;;;6148257;23;20412;-92
2023/10/12 17:54:32;;;;;;;;;;;;;;;;;;;;;
2023/10/12 17:57:14;;;;;;;14.70;7.63;;;14.40;1.00;;;;;;6175134;23;20393;-92
2023/10/12 17:59:57;;;;;;;12.87;6.13;;;14.40;99.90;;;;;;6178868;23;20495;-91
2023/10/12 18:02:28;;;;;;;14.23;5.73;;;;;;;;;;6164281;23;20428;-91
2023/10/12 18:05:27;;;;;;;13.40;7.30;;;14.40;99.90;;;;;;6141571;23;20412;-93
2023/10/12 18:08:13;;;;;;;13.90;6.40;;;14.40;99.90;;;;;;6154711;23;20522;-90
2023/10/12 18:13:32;;;;;;;13.80;5.10;;;14.30;99.90;;;;;;6152896;23;20468;-91
2023/10/12 18:16:30;;;;;;;12.60;6.23;;;14.40;99.90;;;;;;6154862;23;20408;-90
2023/10/12 18:19:26;;;;;;;9.03;4.63;;;14.40;99.90;;;;;;6112914;23;20421;-91
2023/10/12 18:22:17;;;;;;;9.97;5.70;;;14.30;32.10;;;;;;6154342;23;20378;-91
2023/10/12 18:24:54;;;;;;;17.77;8.33;;;;;;;;;;6153086;23;20398;-92
2023/10/12 18:27:27;;;;;;;13.13;7.67;;;;;;;;;;6143026;23;20468;-90
2023/10/12 18:32:37;;;;;;;13.23;5.17;;;14.30;99.90;;;;;;6139845;23;20432;-90
2023/10/12 18:35:30;;;;;;;16.37;6.23;;;14.30;99.90;;;;;;6139914;23;20455;-91
2023/10/12 18:38:06;;;;;;;9.40;5.57;;;14.40;99.90;;;;;;6139376;23;20420;-91
2023/10/12 18:40:34;;;;;;;10.00;5.00;;;;;;;;;;6145690;23;20436;-89
2023/10/12 18:43:01;;;;;;;15.17;5.90;;;14.10;99.90;;;;;;6152004;23;20397;-90
2023/10/12 18:46:25;;;;;;;12.97;7.07;;;14.30;99.90;;;;;;6148808;23;20412;-92
2023/10/12 18:49:04;;;;;;;17.50;6.50;;;14.10;1.00;;;;;;6065719;23;20413;-93
2023/10/12 18:54:21;;;;;;;10.07;4.73;;;14.30;1.00;;;;;;6190690;23;20529;-92
2023/10/12 19:00:15;;;;;;;14.43;5.07;;;14.20;1.00;;;;;;6207849;23;20407;-93
2023/10/12 19:03:06;;;;;;;8.80;4.00;;;14.20;1.00;;;;;;6204830;23;20415;-93
2023/10/12 19:05:52;;;;;;;13.73;4.60;;;14.10;1.00;;;;;;6208571;23;20395;-92
2023/10/12 19:08:53;;;;;;;6.13;4.40;;;14.10;1.00;;;;;;6196405;23;20977;-91
2023/10/12 19:12:02;;;;;;;19.37;5.63;;;14.00;92.80;;;;;;6184015;23;20482;-91
2023/10/12 19:46:24;;;;;;;11.70;5.17;;;14.10;99.90;;;;;;6153247;23;20434;-90
2023/10/12 19:53:18;;;;;;;15.70;4.90;;;14.10;99.90;;;;;;6131537;23;20408;-92
2023/10/12 19:56:44;;;;;;;32.70;20.93;;;14.10;99.90;;;;;;6178807;23;20423;-91
2023/10/12 20:02:07;;;;;;;7.17;3.83;;;14.10;99.90;;;;;;6154937;23;20422;-92
2023/10/12 20:05:29;;;;;;;7.77;3.97;;;14.10;99.90;;;;;;6149961;23;20400;-92
2023/10/12 20:23:09;;;;;;;28.07;20.13;;;14.50;99.90;;;;;;6217608;23;20453;-93
2023/10/12 20:29:18;;;;;;;7.80;4.93;;;13.90;99.90;;;;;;6238082;23;20574;-93
2023/10/12 20:31:50;;;;;;;16.30;6.00;;;;;;;;;;6231312;22;20434;-93
2023/10/12 20:34:28;;;;;;;11.30;5.20;;;14.00;99.90;;;;;;6208916;23;20406;-92
2023/10/12 20:39:52;;;;;;;8.03;4.73;;;13.60;99.90;;;;;;6206926;23;20434;-91
2023/10/12 20:42:27;;;;;;;8.80;5.67;;;;;;;;;;6205743;23;20427;-91
2023/10/12 20:57:15;;;;;;;9.70;4.60;;;14.10;99.90;;;;;;6129354;23;20464;-92
2023/10/12 22:07:30;;;;;;;10.57;4.17;;;;;;;;;;6163279;23;20411;-94
2023/10/12 22:10:06;;;;;;;6.87;4.50;;;;;;;;;;6185603;23;20403;-94
2023/10/12 22:12:37;;;;;;;11.70;4.30;;;;;;;;;;6184321;23;20416;-94
2023/10/12 22:15:31;;;;;;;9.63;4.17;;;13.50;99.90;;;;;;6184954;23;20396;-93
2023/10/12 22:18:02;;;;;;;8.23;4.73;;;13.50;99.90;;;;;;6184451;23;20472;-91
2023/10/12 22:20:44;;;;;;;9.73;4.50;;;;;;;;;;6182426;23;20496;-92
2023/10/12 23:12:18;;;;;;;9.80;5.40;;;13.50;99.90;;;;;;6176594;23;20538;-90
